Time,TemperatureF,DewpointF,PressureIn,WindDirection,WindDirectionDegrees,WindSpeedMPH,WindSpeedGustMPH,Humidity,HourlyPrecipIn,Conditions,Clouds,dailyrainin,SolarRadiationWatts/m^2,SoftwareType,DateUTC
2014-01-01 00:05:00,41.1,39.5,29.16,SSE,157,8.0,13.0,94,0.00,RA,,0.00,0.0,WeatherDisplay:10.37,2014-01-01 00:05:00,
2014-01-01 00:10:00,41.3,39.7,29.16,SSE,154,10.0,16.0,94,0.00,CLR,,0.00,0.0,WeatherDisplay:10.37,2014-01-01 00:10:00,
2014-01-01 00:20:00,41.5,39.9,29.16,SSE,155,9.0,17.0,94,0.00,CLR,,0.00,0.0,WeatherDisplay:10.37,2014-01-01 00:20:00,
2014-01-01 00:25:00,41.5,39.9,29.16,SSE,159,9.0,14.0,94,0.00,CLR,,0.00,0.0,WeatherDisplay:10.37,2014-01-01 00:25:00,
2014-01-01 00:30:00,41.4,39.6,29.16,SSE,158,10.0,15.0,93,0.01,RA,,0.01,0.0,WeatherDisplay:10.37,2014-01-01 00:30:00,
2014-01-01 00:35:00,41.4,39.5,29.16,SSE,165,10.0,17.0,93,0.01,RA,,0.02,0.0,WeatherDisplay:10.37,2014-01-01 00:35:00,
2014-01-01 00:40:00,41.4,39.8,29.16,South,172,8.0,13.0,94,0.00,RA,,0.02,0.0,WeatherDisplay:10.37,2014-01-01 00:40:00,
2014-01-01 00:45:00,41.4,39.8,29.15,SSE,166,8.0,15.0,94,0.00,CLR,,0.02,0.0,WeatherDisplay:10.37,2014-01-01 00:45:00,
2014-01-01 00:50:00,41.3,39.7,29.15,SSE,162,8.0,13.0,94,0.01,RA,,0.02,0.0,WeatherDisplay:10.37,2014-01-01 00:50:00,
2014-01-01 00:55:00,41.2,39.3,29.15,SSE,163,9.0,16.0,93,0.00,RA,,0.02,0.0,WeatherDisplay:10.37,2014-01-01 00:55:00,
2014-01-01 01:00:00,41.0,39.1,29.15,SSE,158,10.0,15.0,93,0.00,CLR,,0.02,0.0,WeatherDisplay:10.37,2014-01-01 01:00:00,
2014-01-01 01:05:00,40.8,39.2,29.15,SSE,157,8.0,14.0,94,0.00,CLR,,0.02,0.0,WeatherDisplay:10.37,2014-01-01 01:05:00,
2014-01-01 01:10:00,40.6,38.8,29.15,SSE,156,9.0,15.0,93,0.00,CLR,,0.02,0.0,WeatherDisplay:10.37,2014-01-01 01:10:00,
2014-01-01 01:15:00,40.6,39.0,29.15,SSE,159,10.0,17.0,94,0.00,CLR,,0.02,0.0,WeatherDisplay:10.37,2014-01-01 01:15:00,
2014-01-01 01:25:00,40.4,38.5,29.15,SSE,164,9.0,17.0,93,0.00,CLR,,0.02,0.0,WeatherDisplay:10.37,2014-01-01 01:25:00,
2014-01-01 01:30:00,40.3,38.4,29.14,SSE,161,8.0,14.0,93,0.00,CLR,,0.02,0.0,WeatherDisplay:10.37,2014-01-01 01:30:00,
2014-01-01 01:40:00,40.1,38.5,29.14,SSE,159,12.0,15.0,94,0.00,CLR,,0.02,0.0,WeatherDisplay:10.37,2014-01-01 01:40:00,
2014-01-01 01:45:00,40.2,38.6,29.14,SSE,157,10.0,17.0,94,0.00,CLR,,0.02,0.0,WeatherDisplay:10.37,2014-01-01 01:45:00,
2014-01-01 01:50:00,40.2,38.6,29.14,SSE,164,9.0,17.0,94,0.00,CLR,,0.02,0.0,WeatherDisplay:10.37,2014-01-01 01:50:00,
2014-01-01 01:55:00,40.4,38.8,29.13,SSE,165,12.0,18.0,94,0.00,CLR,,0.02,0.0,WeatherDisplay:10.37,2014-01-01 01:55:00,
2014-01-01 02:00:00,40.4,38.5,29.13,SSE,163,9.0,14.0,93,0.00,CLR,,0.02,0.0,WeatherDisplay:10.37,2014-01-01 02:00:00,
2014-01-01 02:05:00,40.3,38.4,29.13,SSE,166,10.0,20.0,93,0.00,CLR,,0.02,0.0,WeatherDisplay:10.37,2014-01-01 02:05:00,
2014-01-01 02:10:00,40.2,38.4,29.13,SSE,167,12.0,16.0,93,0.00,CLR,,0.02,0.0,WeatherDisplay:10.37,2014-01-01 02:10:00,
2014-01-01 02:15:00,40.1,38.2,29.13,SSE,165,9.0,15.0,93,0.00,CLR,,0.02,0.0,WeatherDisplay:10.37,2014-01-01 02:15:00,
2014-01-01 02:20:00,40.0,38.1,29.13,SSE,160,9.0,13.0,93,0.00,CLR,,0.02,0.0,WeatherDisplay:10.37,2014-01-01 02:20:00,
2014-01-01 02:30:00,39.8,37.9,29.13,SSE,162,8.0,12.0,93,0.00,CLR,,0.02,0.0,WeatherDisplay:10.37,2014-01-01 02:30:00,
2014-01-01 02:40:00,39.6,37.7,29.12,SSE,154,7.0,12.0,93,0.00,CLR,,0.02,0.0,WeatherDisplay:10.37,2014-01-01 02:40:00,
2014-01-01 02:45:00,39.6,37.7,29.12,SSE,153,7.0,12.0,93,0.00,CLR,,0.02,0.0,WeatherDisplay:10.37,2014-01-01 02:45:00,
2014-01-01 02:50:00,39.6,37.7,29.12,SSE,151,7.0,10.0,93,0.00,CLR,,0.02,0.0,WeatherDisplay:10.37,2014-01-01 02:50:00,
2014-01-01 02:55:00,39.6,37.7,29.12,SSE,154,6.0,10.0,93,0.00,CLR,,0.02,0.0,WeatherDisplay:10.37,2014-01-01 02:55:00,
2014-01-01 03:00:00,39.4,37.6,29.11,SSE,159,8.0,12.0,93,0.00,CLR,,0.02,0.0,WeatherDisplay:10.37,2014-01-01 03:00:00,
2014-01-01 03:05:00,39.4,37.5,29.11,SSE,161,7.0,10.0,93,0.00,CLR,,0.02,0.0,WeatherDisplay:10.37,2014-01-01 03:05:00,
2014-01-01 03:10:00,39.3,37.4,29.11,SSE,154,9.0,13.0,93,0.00,CLR,,0.02,0.0,WeatherDisplay:10.37,2014-01-01 03:10:00,
2014-01-01 03:15:00,39.3,37.7,29.10,SSE,154,8.0,16.0,94,0.00,CLR,,0.02,0.0,WeatherDisplay:10.37,2014-01-01 03:15:00,
2014-01-01 03:25:00,39.4,37.5,29.10,SSE,156,9.0,15.0,93,0.00,CLR,,0.02,0.0,WeatherDisplay:10.37,2014-01-01 03:25:00,
2014-01-01 03:30:00,39.3,37.4,29.09,SSE,154,9.0,14.0,93,0.00,CLR,,0.02,0.0,WeatherDisplay:10.37,2014-01-01 03:30:00,
2014-01-01 03:40:00,39.4,37.5,29.08,SE,146,9.0,18.0,93,0.00,CLR,,0.02,0.0,WeatherDisplay:10.37,2014-01-01 03:40:00,
2014-01-01 03:45:00,39.4,37.5,29.08,SE,144,9.0,15.0,93,0.00,CLR,,0.02,0.0,WeatherDisplay:10.37,2014-01-01 03:45:00,
2014-01-01 03:50:00,39.4,37.5,29.08,SSE,150,9.0,14.0,93,0.00,CLR,,0.02,0.0,WeatherDisplay:10.37,2014-01-01 03:50:00,
2014-01-01 03:55:00,39.3,37.5,29.08,SSE,154,9.0,14.0,93,0.00,CLR,,0.02,0.0,WeatherDisplay:10.37,2014-01-01 03:55:00,
2014-01-01 04:05:00,39.5,37.9,29.07,SSE,151,8.0,16.0,94,0.00,CLR,,0.02,0.0,WeatherDisplay:10.37,2014-01-01 04:05:00,
2014-01-01 04:10:00,39.8,38.2,29.07,SSE,152,9.0,20.0,94,0.00,CLR,,0.02,0.0,WeatherDisplay:10.37,2014-01-01 04:10:00,
2014-01-01 04:15:00,40.0,38.4,29.07,SSE,154,9.0,14.0,94,0.00,CLR,,0.02,0.0,WeatherDisplay:10.37,2014-01-01 04:15:00,
2014-01-01 04:25:00,40.4,38.8,29.06,SSE,154,8.0,14.0,94,0.00,CLR,,0.02,0.0,WeatherDisplay:10.37,2014-01-01 04:25:00,
2014-01-01 04:30:00,40.5,38.6,29.06,SSE,147,7.0,14.0,93,0.00,CLR,,0.02,0.0,WeatherDisplay:10.37,2014-01-01 04:30:00,
2014-01-01 04:40:00,40.5,38.6,29.05,SE,139,8.0,12.0,93,0.00,CLR,,0.02,0.0,WeatherDisplay:10.37,2014-01-01 04:40:00,
2014-01-01 04:45:00,40.5,38.6,29.05,SE,135,8.0,13.0,93,0.00,CLR,,0.02,0.0,WeatherDisplay:10.37,2014-01-01 04:45:00,
2014-01-01 04:50:00,40.5,38.6,29.04,SE,135,7.0,12.0,93,0.00,CLR,,0.02,0.0,WeatherDisplay:10.37,2014-01-01 04:50:00,
2014-01-01 04:55:00,40.5,38.6,29.04,SE,134,8.0,13.0,93,0.00,CLR,,0.02,0.0,WeatherDisplay:10.37,2014-01-01 04:55:00,
2014-01-01 05:00:00,40.5,38.6,29.03,SE,141,7.0,14.0,93,0.00,CLR,,0.02,0.0,WeatherDisplay:10.37,2014-01-01 05:00:00,
2014-01-01 05:05:00,40.6,39.0,29.03,SE,142,7.0,12.0,94,0.00,CLR,,0.02,0.0,WeatherDisplay:10.37,2014-01-01 05:05:00,
2014-01-01 05:10:00,40.7,38.8,29.02,SE,133,7.0,13.0,93,0.00,CLR,,0.02,0.0,WeatherDisplay:10.37,2014-01-01 05:10:00,
2014-01-01 05:15:00,40.8,39.2,29.02,SE,132,10.0,15.0,94,0.00,CLR,,0.02,0.0,WeatherDisplay:10.37,2014-01-01 05:15:00,
2014-01-01 05:20:00,41.0,39.4,29.01,SE,133,10.0,15.0,94,0.00,CLR,,0.02,0.0,WeatherDisplay:10.37,2014-01-01 05:20:00,
2014-01-01 05:25:00,41.2,39.3,29.01,SE,130,8.0,15.0,93,0.00,CLR,,0.02,0.0,WeatherDisplay:10.37,2014-01-01 05:25:00,
2014-01-01 05:30:00,41.3,39.7,29.01,SE,128,7.0,16.0,94,0.00,CLR,,0.02,0.0,WeatherDisplay:10.37,2014-01-01 05:30:00,
2014-01-01 05:35:00,41.3,39.5,29.00,SE,131,6.0,12.0,93,0.00,CLR,,0.02,0.0,WeatherDisplay:10.37,2014-01-01 05:35:00,
2014-01-01 05:40:00,41.4,39.5,29.00,SE,136,5.0,12.0,93,0.00,CLR,,0.02,0.0,WeatherDisplay:10.37,2014-01-01 05:40:00,
2014-01-01 05:45:00,41.4,39.5,29.00,SE,132,6.0,10.0,93,0.00,CLR,,0.02,0.0,WeatherDisplay:10.37,2014-01-01 05:45:00,
2014-01-01 05:55:00,41.6,39.8,28.99,SE,125,3.0,9.0,93,0.00,CLR,,0.02,0.0,WeatherDisplay:10.37,2014-01-01 05:55:00,
2014-01-01 06:00:00,41.6,39.7,28.98,SE,124,5.0,7.0,93,0.00,CLR,,0.02,0.0,WeatherDisplay:10.37,2014-01-01 06:00:00,
2014-01-01 06:05:00,41.6,39.7,28.98,SE,124,5.0,7.0,93,0.00,CLR,,0.02,0.0,WeatherDisplay:10.37,2014-01-01 06:05:00,
2014-01-01 06:10:00,41.6,39.7,28.98,SE,124,5.0,6.0,93,0.00,CLR,,0.02,0.0,WeatherDisplay:10.37,2014-01-01 06:10:00,
2014-01-01 06:15:00,41.5,39.6,28.97,SE,124,3.0,8.0,93,0.00,CLR,,0.02,0.0,WeatherDisplay:10.37,2014-01-01 06:15:00,
2014-01-01 06:20:00,41.5,39.6,28.97,SE,124,3.0,8.0,93,0.00,CLR,,0.02,0.0,WeatherDisplay:10.37,2014-01-01 06:20:00,
2014-01-01 06:25:00,41.4,39.8,28.97,ESE,123,3.0,7.0,94,0.00,CLR,,0.02,0.0,WeatherDisplay:10.37,2014-01-01 06:25:00,
2014-01-01 06:30:00,41.4,39.8,28.96,ESE,123,1.0,5.0,94,0.00,CLR,,0.02,0.0,WeatherDisplay:10.37,2014-01-01 06:30:00,
2014-01-01 06:40:00,41.4,39.8,28.95,ESE,123,3.0,6.0,94,0.00,CLR,,0.02,0.0,WeatherDisplay:10.37,2014-01-01 06:40:00,
2014-01-01 06:45:00,41.5,39.9,28.95,ESE,123,3.0,6.0,94,0.00,CLR,,0.02,0.0,WeatherDisplay:10.37,2014-01-01 06:45:00,
2014-01-01 06:50:00,41.5,39.9,28.94,ESE,123,1.0,5.0,94,0.00,CLR,,0.02,0.0,WeatherDisplay:10.37,2014-01-01 06:50:00,
2014-01-01 06:55:00,41.5,39.9,28.94,ESE,123,1.0,5.0,94,0.00,CLR,,0.02,0.0,WeatherDisplay:10.37,2014-01-01 06:55:00,
2014-01-01 07:00:00,41.5,39.9,28.94,ESE,123,2.0,5.0,94,0.00,CLR,,0.02,0.0,WeatherDisplay:10.37,2014-01-01 07:00:00,
2014-01-01 07:05:00,41.5,39.9,28.93,ESE,123,2.0,5.0,94,0.00,CLR,,0.02,0.0,WeatherDisplay:10.37,2014-01-01 07:05:00,
2014-01-01 07:10:00,41.6,40.0,28.93,ESE,123,2.0,4.0,94,0.00,CLR,,0.02,0.0,WeatherDisplay:10.37,2014-01-01 07:10:00,
2014-01-01 07:15:00,41.6,40.0,28.92,ESE,123,1.0,7.0,94,0.00,CLR,,0.02,0.0,WeatherDisplay:10.37,2014-01-01 07:15:00,
2014-01-01 07:25:00,41.7,40.1,28.92,ESE,123,0.0,2.0,94,0.00,CLR,,0.02,0.0,WeatherDisplay:10.37,2014-01-01 07:25:00,
2014-01-01 07:30:00,41.6,40.0,28.91,ESE,123,1.0,4.0,94,0.00,CLR,,0.02,0.0,WeatherDisplay:10.37,2014-01-01 07:30:00,
2014-01-01 07:35:00,41.5,39.9,28.91,ESE,123,2.0,6.0,94,0.01,RA,,0.03,0.0,WeatherDisplay:10.37,2014-01-01 07:35:00,
2014-01-01 07:40:00,41.4,39.8,28.91,ESE,123,2.0,4.0,94,0.00,RA,,0.03,0.0,WeatherDisplay:10.37,2014-01-01 07:40:00,
2014-01-01 07:50:00,41.0,39.4,28.90,ESE,123,1.0,5.0,94,0.00,CLR,,0.03,0.0,WeatherDisplay:10.37,2014-01-01 07:50:00,
2014-01-01 07:55:00,40.9,39.3,28.89,ESE,123,2.0,7.0,94,0.00,CLR,,0.03,0.0,WeatherDisplay:10.37,2014-01-01 07:55:00,
2014-01-01 08:00:00,40.8,39.2,28.89,ESE,122,3.0,6.0,94,0.00,CLR,,0.03,0.0,WeatherDisplay:10.37,2014-01-01 08:00:00,
2014-01-01 08:05:00,40.6,39.0,28.88,ESE,122,1.0,5.0,94,0.00,CLR,,0.03,0.0,WeatherDisplay:10.37,2014-01-01 08:05:00,
2014-01-01 08:10:00,40.5,38.9,28.88,ESE,122,2.0,6.0,94,0.00,CLR,,0.03,0.0,WeatherDisplay:10.37,2014-01-01 08:10:00,
2014-01-01 08:15:00,40.5,38.9,28.88,ESE,122,2.0,6.0,94,0.00,CLR,,0.03,0.0,WeatherDisplay:10.37,2014-01-01 08:15:00,
2014-01-01 08:20:00,40.4,38.8,28.87,ESE,122,1.0,5.0,94,0.00,CLR,,0.03,0.0,WeatherDisplay:10.37,2014-01-01 08:20:00,
2014-01-01 08:25:00,40.4,38.8,28.87,ESE,122,1.0,5.0,94,0.00,OVC,,0.03,0.0,WeatherDisplay:10.37,2014-01-01 08:25:00,
2014-01-01 08:30:00,40.4,38.8,28.86,ESE,121,3.0,7.0,94,0.00,OVC,,0.03,0.0,WeatherDisplay:10.37,2014-01-01 08:30:00,
2014-01-01 08:35:00,40.6,39.2,28.86,ESE,120,3.0,7.0,95,0.00,OVC,,0.03,0.0,WeatherDisplay:10.37,2014-01-01 08:35:00,
2014-01-01 08:45:00,40.8,39.5,28.85,ESE,112,1.0,6.0,95,0.01,RA,,0.04,0.0,WeatherDisplay:10.37,2014-01-01 08:45:00,
2014-01-01 08:50:00,40.9,39.6,28.85,ESE,112,2.0,6.0,95,0.00,RA,,0.04,0.0,WeatherDisplay:10.37,2014-01-01 08:50:00,
2014-01-01 08:55:00,41.0,39.7,28.84,ESE,112,1.0,7.0,95,0.00,CLR,,0.04,0.0,WeatherDisplay:10.37,2014-01-01 08:55:00,
2014-01-01 09:00:00,41.1,39.8,28.83,ESE,111,3.0,7.0,95,0.00,OVC,,0.04,0.0,WeatherDisplay:10.37,2014-01-01 09:00:00,
2014-01-01 09:05:00,41.3,40.0,28.83,ESE,107,5.0,9.0,95,0.00,OVC,,0.04,0.0,WeatherDisplay:10.37,2014-01-01 09:05:00,
2014-01-01 09:10:00,41.5,40.2,28.83,East,98,5.0,8.0,95,0.00,OVC,,0.04,0.0,WeatherDisplay:10.37,2014-01-01 09:10:00,
2014-01-01 09:15:00,41.7,40.4,28.82,East,84,5.0,8.0,95,0.01,RA,,0.05,0.0,WeatherDisplay:10.37,2014-01-01 09:15:00,
2014-01-01 09:20:00,41.8,40.5,28.82,ENE,65,5.0,10.0,95,0.00,RA,,0.05,7.0,WeatherDisplay:10.37,2014-01-01 09:20:00,
2014-01-01 09:25:00,41.9,40.6,28.81,NE,51,5.0,8.0,95,0.00,BKN,,0.05,11.0,WeatherDisplay:10.37,2014-01-01 09:25:00,
2014-01-01 09:30:00,41.9,40.6,28.81,NE,48,5.0,12.0,95,0.00,BKN,,0.05,11.0,WeatherDisplay:10.37,2014-01-01 09:30:00,
2014-01-01 09:40:00,41.9,40.6,28.81,NE,38,5.0,8.0,95,0.01,RA,,0.05,14.0,WeatherDisplay:10.37,2014-01-01 09:40:00,
2014-01-01 09:45:00,41.9,40.6,28.80,NE,34,3.0,8.0,95,0.00,RA,,0.05,14.0,WeatherDisplay:10.37,2014-01-01 09:45:00,
2014-01-01 09:50:00,41.9,40.6,28.80,NNE,30,3.0,8.0,95,0.00,BKN,,0.05,19.0,WeatherDisplay:10.37,2014-01-01 09:50:00,
2014-01-01 09:55:00,41.9,40.6,28.80,NNE,29,3.0,8.0,95,0.00,BKN,,0.05,16.0,WeatherDisplay:10.37,2014-01-01 09:55:00,
2014-01-01 10:00:00,41.9,40.6,28.79,NNE,28,5.0,9.0,95,0.01,RA,,0.06,21.0,WeatherDisplay:10.37,2014-01-01 10:00:00,
2014-01-01 10:05:00,41.8,40.5,28.79,NNE,28,5.0,9.0,95,0.00,RA,,0.06,21.0,WeatherDisplay:10.37,2014-01-01 10:05:00,
2014-01-01 10:10:00,41.9,40.6,28.79,NNE,31,5.0,12.0,95,0.00,BKN,,0.06,26.0,WeatherDisplay:10.37,2014-01-01 10:10:00,
2014-01-01 10:15:00,41.9,40.6,28.79,NNE,33,5.0,8.0,95,0.00,BKN,,0.06,21.0,WeatherDisplay:10.37,2014-01-01 10:15:00,
2014-01-01 10:20:00,42.0,40.6,28.79,NE,34,5.0,10.0,95,0.00,BKN,,0.06,16.0,WeatherDisplay:10.37,2014-01-01 10:20:00,
2014-01-01 10:25:00,42.0,40.7,28.78,NE,35,2.0,8.0,95,0.00,BKN,,0.06,14.0,WeatherDisplay:10.37,2014-01-01 10:25:00,
2014-01-01 10:30:00,42.0,40.7,28.78,NE,35,3.0,6.0,95,0.00,BKN,,0.06,18.0,WeatherDisplay:10.37,2014-01-01 10:30:00,
2014-01-01 10:40:00,42.0,40.7,28.78,NE,35,3.0,7.0,95,0.01,RA,,0.07,32.0,WeatherDisplay:10.37,2014-01-01 10:40:00,
2014-01-01 10:45:00,42.0,40.7,28.78,NE,35,2.0,6.0,95,0.00,RA,,0.07,28.0,WeatherDisplay:10.37,2014-01-01 10:45:00,
2014-01-01 10:50:00,42.0,40.7,28.78,NE,35,2.0,6.0,95,0.01,RA,,0.08,25.0,WeatherDisplay:10.37,2014-01-01 10:50:00,
2014-01-01 10:55:00,42.0,40.7,28.77,NE,35,3.0,8.0,95,0.00,RA,,0.08,23.0,WeatherDisplay:10.37,2014-01-01 10:55:00,
2014-01-01 11:05:00,41.9,40.6,28.77,NE,35,3.0,5.0,95,0.01,RA,,0.09,18.0,WeatherDisplay:10.37,2014-01-01 11:05:00,
2014-01-01 11:10:00,41.9,40.6,28.77,NE,35,3.0,6.0,95,0.00,RA,,0.09,21.0,WeatherDisplay:10.37,2014-01-01 11:10:00,
2014-01-01 11:15:00,41.9,40.6,28.76,NE,34,5.0,7.0,95,0.01,RA,,0.10,23.0,WeatherDisplay:10.37,2014-01-01 11:15:00,
2014-01-01 11:20:00,41.9,40.6,28.76,NNE,33,5.0,6.0,95,0.00,RA,,0.10,21.0,WeatherDisplay:10.37,2014-01-01 11:20:00,
2014-01-01 11:25:00,41.9,40.6,28.76,NNE,27,3.0,8.0,95,0.01,RA,,0.11,28.0,WeatherDisplay:10.37,2014-01-01 11:25:00,
2014-01-01 11:30:00,41.9,40.6,28.76,NNE,23,5.0,6.0,95,0.00,RA,,0.11,32.0,WeatherDisplay:10.37,2014-01-01 11:30:00,
2014-01-01 11:40:00,42.0,40.7,28.75,NNE,19,3.0,9.0,95,0.01,RA,,0.13,35.0,WeatherDisplay:10.37,2014-01-01 11:40:00,
2014-01-01 11:45:00,42.0,40.7,28.75,NNE,13,5.0,8.0,95,0.00,RA,,0.13,35.0,WeatherDisplay:10.37,2014-01-01 11:45:00,
2014-01-01 11:50:00,42.1,40.8,28.75,North,9,5.0,7.0,95,0.01,RA,,0.13,37.0,WeatherDisplay:10.37,2014-01-01 11:50:00,
2014-01-01 11:55:00,42.1,41.0,28.75,North,6,5.0,8.0,96,0.01,RA,,0.14,42.0,WeatherDisplay:10.37,2014-01-01 11:55:00,
2014-01-01 12:00:00,42.1,41.0,28.75,North,360,3.0,9.0,96,0.00,RA,,0.14,49.0,WeatherDisplay:10.37,2014-01-01 12:00:00,
2014-01-01 12:05:00,42.2,41.1,28.74,North,355,6.0,9.0,96,0.01,RA,,0.15,56.0,WeatherDisplay:10.37,2014-01-01 12:05:00,
2014-01-01 12:10:00,42.2,41.1,28.74,North,350,7.0,10.0,96,0.00,RA,,0.15,62.0,WeatherDisplay:10.37,2014-01-01 12:10:00,
2014-01-01 12:15:00,42.2,41.1,28.74,NNW,344,7.0,10.0,96,0.01,RA,,0.16,70.0,WeatherDisplay:10.37,2014-01-01 12:15:00,
2014-01-01 12:20:00,42.2,41.1,28.74,NNW,338,5.0,10.0,96,0.00,RA,,0.16,83.0,WeatherDisplay:10.37,2014-01-01 12:20:00,
2014-01-01 12:30:00,42.3,41.2,28.74,NNW,332,7.0,10.0,96,0.00,RA,,0.17,84.0,WeatherDisplay:10.37,2014-01-01 12:30:00,
2014-01-01 12:40:00,42.3,42.3,28.74,NNW,328,6.0,10.0,100,0.00,RA,,0.17,54.0,WeatherDisplay:10.37,2014-01-01 12:40:00,
2014-01-01 12:45:00,42.3,41.2,28.74,NW,326,5.0,13.0,96,0.00,BKN,,0.17,42.0,WeatherDisplay:10.37,2014-01-01 12:45:00,
2014-01-01 12:50:00,42.2,41.2,28.74,NW,326,6.0,10.0,96,0.00,BKN,,0.17,39.0,WeatherDisplay:10.37,2014-01-01 12:50:00,
2014-01-01 12:55:00,42.2,41.1,28.74,NW,325,6.0,12.0,96,0.00,BKN,,0.17,35.0,WeatherDisplay:10.37,2014-01-01 12:55:00,
2014-01-01 13:00:00,42.1,41.1,28.74,NW,320,7.0,13.0,96,0.00,BKN,,0.17,37.0,WeatherDisplay:10.37,2014-01-01 13:00:00,
2014-01-01 13:05:00,42.1,41.0,28.74,NW,318,6.0,12.0,96,0.01,RA,,0.18,58.0,WeatherDisplay:10.37,2014-01-01 13:05:00,
2014-01-01 13:10:00,42.1,41.0,28.74,NW,319,8.0,12.0,96,0.00,RA,,0.18,67.0,WeatherDisplay:10.37,2014-01-01 13:10:00,
2014-01-01 13:15:00,42.2,41.1,28.74,NW,319,5.0,10.0,96,0.00,BKN,,0.18,84.0,WeatherDisplay:10.37,2014-01-01 13:15:00,
2014-01-01 13:20:00,42.2,41.1,28.74,NW,318,7.0,12.0,96,0.00,BKN,,0.18,90.0,WeatherDisplay:10.37,2014-01-01 13:20:00,
2014-01-01 13:25:00,42.3,41.2,28.74,NW,318,6.0,10.0,96,0.00,BKN,,0.18,86.0,WeatherDisplay:10.37,2014-01-01 13:25:00,
2014-01-01 13:30:00,42.3,41.2,28.74,NW,320,5.0,10.0,96,0.00,BKN,,0.18,100.0,WeatherDisplay:10.37,2014-01-01 13:30:00,
2014-01-01 13:35:00,42.4,41.3,28.74,NW,320,5.0,10.0,96,0.00,SCT,,0.18,84.0,WeatherDisplay:10.37,2014-01-01 13:35:00,
2014-01-01 13:40:00,42.4,41.3,28.75,NW,318,3.0,9.0,96,0.00,BKN,,0.18,70.0,WeatherDisplay:10.37,2014-01-01 13:40:00,
2014-01-01 13:45:00,42.4,41.3,28.75,NW,316,7.0,12.0,96,0.01,RA,,0.19,67.0,WeatherDisplay:10.37,2014-01-01 13:45:00,
2014-01-01 13:50:00,42.4,41.3,28.75,NW,314,7.0,12.0,96,0.00,RA,,0.19,81.0,WeatherDisplay:10.37,2014-01-01 13:50:00,
2014-01-01 14:00:00,42.4,41.3,28.75,NW,314,6.0,14.0,96,0.00,BKN,,0.19,51.0,WeatherDisplay:10.37,2014-01-01 14:00:00,
2014-01-01 14:05:00,42.3,41.5,28.75,NW,314,7.0,12.0,97,0.00,BKN,,0.19,42.0,WeatherDisplay:10.37,2014-01-01 14:05:00,
2014-01-01 14:10:00,42.3,41.2,28.75,NW,312,5.0,12.0,96,0.00,BKN,,0.19,33.0,WeatherDisplay:10.37,2014-01-01 14:10:00,
2014-01-01 14:15:00,42.2,41.2,28.75,NW,309,6.0,10.0,96,0.00,BKN,,0.19,33.0,WeatherDisplay:10.37,2014-01-01 14:15:00,
2014-01-01 14:20:00,42.1,41.0,28.75,NW,308,6.0,12.0,96,0.00,BKN,,0.19,44.0,WeatherDisplay:10.37,2014-01-01 14:20:00,
2014-01-01 14:25:00,42.1,41.0,28.76,NW,308,6.0,10.0,96,0.00,BKN,,0.19,60.0,WeatherDisplay:10.37,2014-01-01 14:25:00,
2014-01-01 14:30:00,42.1,41.0,28.76,NW,309,5.0,9.0,96,0.00,BKN,,0.19,56.0,WeatherDisplay:10.37,2014-01-01 14:30:00,
2014-01-01 14:40:00,42.3,41.2,28.76,WNW,302,6.0,10.0,96,0.00,BKN,,0.19,72.0,WeatherDisplay:10.37,2014-01-01 14:40:00,
2014-01-01 14:45:00,42.3,41.3,28.76,WNW,302,5.0,10.0,96,0.00,SCT,,0.19,63.0,WeatherDisplay:10.37,2014-01-01 14:45:00,
2014-01-01 14:50:00,42.4,41.3,28.76,WNW,302,5.0,8.0,96,0.00,SCT,,0.19,54.0,WeatherDisplay:10.37,2014-01-01 14:50:00,
2014-01-01 14:55:00,42.3,41.8,28.76,WNW,302,5.0,9.0,98,0.00,BKN,,0.19,60.0,WeatherDisplay:10.37,2014-01-01 14:55:00,
2014-01-01 15:05:00,42.2,41.1,28.77,WNW,302,3.0,6.0,96,0.00,SCT,,0.19,47.0,WeatherDisplay:10.37,2014-01-01 15:05:00,
2014-01-01 15:10:00,42.1,41.0,28.77,WNW,302,3.0,6.0,96,0.00,BKN,,0.19,40.0,WeatherDisplay:10.37,2014-01-01 15:10:00,
2014-01-01 15:15:00,42.0,40.9,28.77,WNW,302,5.0,7.0,96,0.00,BKN,,0.19,35.0,WeatherDisplay:10.37,2014-01-01 15:15:00,
2014-01-01 15:20:00,41.9,40.8,28.78,WNW,302,3.0,8.0,96,0.00,BKN,,0.19,35.0,WeatherDisplay:10.37,2014-01-01 15:20:00,
2014-01-01 15:25:00,41.8,40.7,28.78,WNW,302,5.0,8.0,96,0.00,BKN,,0.19,37.0,WeatherDisplay:10.37,2014-01-01 15:25:00,
2014-01-01 15:30:00,41.8,40.8,28.78,WNW,302,5.0,8.0,96,0.00,SCT,,0.19,39.0,WeatherDisplay:10.37,2014-01-01 15:30:00,
2014-01-01 15:40:00,41.8,40.7,28.79,WNW,300,5.0,8.0,96,0.00,FEW,,0.19,46.0,WeatherDisplay:10.37,2014-01-01 15:40:00,
2014-01-01 15:45:00,41.8,40.7,28.79,WNW,300,6.0,9.0,96,0.00,FEW,,0.19,40.0,WeatherDisplay:10.37,2014-01-01 15:45:00,
2014-01-01 15:50:00,41.8,40.7,28.79,WNW,299,5.0,9.0,96,0.00,SCT,,0.19,26.0,WeatherDisplay:10.37,2014-01-01 15:50:00,
2014-01-01 15:55:00,41.9,40.8,28.80,WNW,298,3.0,7.0,96,0.00,SCT,,0.19,25.0,WeatherDisplay:10.37,2014-01-01 15:55:00,
2014-01-01 16:00:00,41.9,40.8,28.80,WNW,297,5.0,8.0,96,0.00,SCT,,0.19,21.0,WeatherDisplay:10.37,2014-01-01 16:00:00,
2014-01-01 16:05:00,41.9,40.8,28.80,WNW,297,2.0,6.0,96,0.00,BKN,,0.19,12.0,WeatherDisplay:10.37,2014-01-01 16:05:00,
2014-01-01 16:10:00,41.9,40.6,28.80,WNW,297,5.0,7.0,95,0.00,SCT,,0.19,14.0,WeatherDisplay:10.37,2014-01-01 16:10:00,
2014-01-01 16:15:00,41.9,40.6,28.80,WNW,297,2.0,7.0,95,0.00,SCT,,0.19,9.0,WeatherDisplay:10.37,2014-01-01 16:15:00,
2014-01-01 16:25:00,41.9,40.6,28.81,WNW,297,3.0,7.0,95,0.00,CLR,,0.19,5.0,WeatherDisplay:10.37,2014-01-01 16:25:00,
2014-01-01 16:30:00,41.8,40.5,28.81,WNW,297,5.0,6.0,95,0.00,OVC,,0.19,0.0,WeatherDisplay:10.37,2014-01-01 16:30:00,
2014-01-01 16:40:00,41.8,40.5,28.81,WNW,296,5.0,9.0,95,0.00,OVC,,0.19,0.0,WeatherDisplay:10.37,2014-01-01 16:40:00,
2014-01-01 16:45:00,41.8,40.5,28.82,WNW,296,3.0,7.0,95,0.00,OVC,,0.19,0.0,WeatherDisplay:10.37,2014-01-01 16:45:00,
2014-01-01 16:50:00,41.8,40.5,28.82,WNW,296,5.0,7.0,95,0.00,OVC,,0.19,0.0,WeatherDisplay:10.37,2014-01-01 16:50:00,
2014-01-01 17:00:00,41.7,40.4,28.82,WNW,296,3.0,7.0,95,0.00,CLR,,0.19,0.0,WeatherDisplay:10.37,2014-01-01 17:00:00,
2014-01-01 17:05:00,41.6,40.3,28.82,WNW,296,5.0,7.0,95,0.00,CLR,,0.19,0.0,WeatherDisplay:10.37,2014-01-01 17:05:00,
2014-01-01 17:10:00,41.4,39.8,28.82,WNW,296,5.0,7.0,94,0.00,CLR,,0.19,0.0,WeatherDisplay:10.37,2014-01-01 17:10:00,
2014-01-01 17:15:00,41.2,39.9,28.83,WNW,296,5.0,9.0,95,0.00,CLR,,0.19,0.0,WeatherDisplay:10.37,2014-01-01 17:15:00,
2014-01-01 17:20:00,41.1,39.8,28.83,WNW,295,3.0,9.0,95,0.00,CLR,,0.19,0.0,WeatherDisplay:10.37,2014-01-01 17:20:00,
2014-01-01 17:25:00,41.0,39.4,28.83,WNW,294,5.0,6.0,94,0.00,CLR,,0.19,0.0,WeatherDisplay:10.37,2014-01-01 17:25:00,
2014-01-01 17:30:00,40.8,39.2,28.83,WNW,294,5.0,7.0,94,0.00,CLR,,0.19,0.0,WeatherDisplay:10.37,2014-01-01 17:30:00,
2014-01-01 17:35:00,40.7,39.1,28.84,WNW,294,6.0,8.0,94,0.00,CLR,,0.19,0.0,WeatherDisplay:10.37,2014-01-01 17:35:00,
2014-01-01 17:40:00,40.6,39.0,28.84,WNW,294,6.0,8.0,94,0.00,CLR,,0.19,0.0,WeatherDisplay:10.37,2014-01-01 17:40:00,
2014-01-01 17:45:00,40.5,38.9,28.84,WNW,293,6.0,8.0,94,0.00,CLR,,0.19,0.0,WeatherDisplay:10.37,2014-01-01 17:45:00,
2014-01-01 17:50:00,40.5,38.9,28.85,WNW,293,5.0,8.0,94,0.00,CLR,,0.19,0.0,WeatherDisplay:10.37,2014-01-01 17:50:00,
2014-01-01 17:55:00,40.6,39.3,28.85,WNW,291,7.0,9.0,95,0.00,CLR,,0.19,0.0,WeatherDisplay:10.37,2014-01-01 17:55:00,
2014-01-01 18:05:00,40.9,39.6,28.85,West,277,7.0,9.0,95,0.00,CLR,,0.19,0.0,WeatherDisplay:10.37,2014-01-01 18:05:00,
2014-01-01 18:10:00,40.9,39.3,28.85,West,274,7.0,9.0,94,0.00,CLR,,0.19,0.0,WeatherDisplay:10.37,2014-01-01 18:10:00,
2014-01-01 18:15:00,40.7,39.1,28.86,West,270,7.0,10.0,94,0.00,CLR,,0.19,0.0,WeatherDisplay:10.37,2014-01-01 18:15:00,
2014-01-01 18:20:00,40.6,39.3,28.86,West,266,6.0,9.0,95,0.00,CLR,,0.19,0.0,WeatherDisplay:10.37,2014-01-01 18:20:00,
2014-01-01 18:25:00,40.7,39.4,28.86,West,261,7.0,12.0,95,0.00,CLR,,0.19,0.0,WeatherDisplay:10.37,2014-01-01 18:25:00,
2014-01-01 18:30:00,40.6,39.3,28.86,WSW,258,5.0,9.0,95,0.00,CLR,,0.19,0.0,WeatherDisplay:10.37,2014-01-01 18:30:00,
2014-01-01 18:35:00,40.5,38.9,28.87,WSW,257,3.0,7.0,94,0.00,CLR,,0.19,0.0,WeatherDisplay:10.37,2014-01-01 18:35:00,
2014-01-01 18:40:00,40.5,39.2,28.87,WSW,257,5.0,12.0,95,0.00,CLR,,0.19,0.0,WeatherDisplay:10.37,2014-01-01 18:40:00,
2014-01-01 18:45:00,40.5,39.2,28.87,WSW,256,6.0,9.0,95,0.00,CLR,,0.19,0.0,WeatherDisplay:10.37,2014-01-01 18:45:00,
2014-01-01 18:50:00,40.6,39.2,28.87,WSW,256,6.0,10.0,95,0.00,CLR,,0.19,0.0,WeatherDisplay:10.37,2014-01-01 18:50:00,
2014-01-01 18:55:00,40.7,39.4,28.87,WSW,256,6.0,8.0,95,0.00,CLR,,0.19,0.0,WeatherDisplay:10.37,2014-01-01 18:55:00,
2014-01-01 19:00:00,40.8,39.5,28.88,WSW,254,7.0,12.0,95,0.00,CLR,,0.19,0.0,WeatherDisplay:10.37,2014-01-01 19:00:00,
2014-01-01 19:05:00,40.9,39.5,28.87,WSW,252,7.0,12.0,95,0.00,CLR,,0.19,0.0,WeatherDisplay:10.37,2014-01-01 19:05:00,
2014-01-01 19:10:00,40.8,39.5,28.88,WSW,251,7.0,12.0,95,0.00,CLR,,0.19,0.0,WeatherDisplay:10.37,2014-01-01 19:10:00,
2014-01-01 19:15:00,40.8,39.5,28.88,WSW,250,7.0,10.0,95,0.00,CLR,,0.19,0.0,WeatherDisplay:10.37,2014-01-01 19:15:00,
2014-01-01 19:20:00,40.7,39.4,28.88,WSW,250,7.0,12.0,95,0.00,CLR,,0.19,0.0,WeatherDisplay:10.37,2014-01-01 19:20:00,
2014-01-01 19:25:00,40.7,39.4,28.88,WSW,250,7.0,12.0,95,0.00,CLR,,0.19,0.0,WeatherDisplay:10.37,2014-01-01 19:25:00,
2014-01-01 19:30:00,40.7,39.4,28.89,WSW,250,7.0,10.0,95,0.00,CLR,,0.19,0.0,WeatherDisplay:10.37,2014-01-01 19:30:00,
2014-01-01 19:40:00,40.7,39.4,28.89,WSW,250,6.0,10.0,95,0.00,CLR,,0.19,0.0,WeatherDisplay:10.37,2014-01-01 19:40:00,
2014-01-01 19:50:00,40.5,39.2,28.90,WSW,249,6.0,13.0,95,0.00,CLR,,0.19,0.0,WeatherDisplay:10.37,2014-01-01 19:50:00,
2014-01-01 19:55:00,40.4,39.1,28.90,WSW,248,5.0,7.0,95,0.00,CLR,,0.19,0.0,WeatherDisplay:10.37,2014-01-01 19:55:00,
2014-01-01 20:00:00,40.3,39.0,28.90,WSW,248,5.0,9.0,95,0.00,CLR,,0.19,0.0,WeatherDisplay:10.37,2014-01-01 20:00:00,
2014-01-01 20:05:00,40.2,38.9,28.90,WSW,248,5.0,9.0,95,0.00,CLR,,0.19,0.0,WeatherDisplay:10.37,2014-01-01 20:05:00,
2014-01-01 20:10:00,40.1,38.8,28.91,WSW,248,5.0,7.0,95,0.00,CLR,,0.19,0.0,WeatherDisplay:10.37,2014-01-01 20:10:00,
2014-01-01 20:15:00,40.1,38.8,28.91,WSW,248,5.0,7.0,95,0.00,CLR,,0.19,0.0,WeatherDisplay:10.37,2014-01-01 20:15:00,
2014-01-01 20:20:00,40.1,38.8,28.91,WSW,248,5.0,7.0,95,0.00,CLR,,0.19,0.0,WeatherDisplay:10.37,2014-01-01 20:20:00,
2014-01-01 20:25:00,40.4,39.1,28.91,WSW,248,6.0,9.0,95,0.00,CLR,,0.19,0.0,WeatherDisplay:10.37,2014-01-01 20:25:00,
2014-01-01 20:30:00,40.6,39.3,28.92,WSW,248,6.0,8.0,95,0.00,CLR,,0.19,0.0,WeatherDisplay:10.37,2014-01-01 20:30:00,
2014-01-01 20:35:00,40.8,39.5,28.92,WSW,248,5.0,8.0,95,0.00,CLR,,0.19,0.0,WeatherDisplay:10.37,2014-01-01 20:35:00,
2014-01-01 20:40:00,40.6,39.1,28.92,WSW,248,6.0,8.0,94,0.00,CLR,,0.19,0.0,WeatherDisplay:10.37,2014-01-01 20:40:00,
2014-01-01 20:45:00,40.6,39.0,28.92,WSW,248,6.0,9.0,94,0.00,CLR,,0.19,0.0,WeatherDisplay:10.37,2014-01-01 20:45:00,
2014-01-01 20:50:00,40.7,39.4,28.92,WSW,248,6.0,12.0,95,0.00,CLR,,0.19,0.0,WeatherDisplay:10.37,2014-01-01 20:50:00,
2014-01-01 20:55:00,41.1,39.8,28.92,WSW,247,7.0,13.0,95,0.00,CLR,,0.19,0.0,WeatherDisplay:10.37,2014-01-01 20:55:00,
2014-01-01 21:00:00,41.5,40.2,28.92,WSW,245,7.0,12.0,95,0.00,CLR,,0.19,0.0,WeatherDisplay:10.37,2014-01-01 21:00:00,
2014-01-01 21:05:00,41.6,40.0,28.93,WSW,245,6.0,9.0,94,0.00,CLR,,0.19,0.0,WeatherDisplay:10.37,2014-01-01 21:05:00,
2014-01-01 21:10:00,41.6,40.0,28.93,WSW,245,6.0,9.0,94,0.00,CLR,,0.19,0.0,WeatherDisplay:10.37,2014-01-01 21:10:00,
2014-01-01 21:15:00,41.6,39.7,28.93,WSW,245,6.0,9.0,93,0.00,CLR,,0.19,0.0,WeatherDisplay:10.37,2014-01-01 21:15:00,
2014-01-01 21:20:00,41.5,39.6,28.93,WSW,245,5.0,8.0,93,0.00,CLR,,0.19,0.0,WeatherDisplay:10.37,2014-01-01 21:20:00,
2014-01-01 21:25:00,41.3,39.4,28.93,WSW,245,3.0,8.0,93,0.00,CLR,,0.19,0.0,WeatherDisplay:10.37,2014-01-01 21:25:00,
2014-01-01 21:30:00,41.2,39.3,28.94,WSW,245,5.0,8.0,93,0.00,CLR,,0.19,0.0,WeatherDisplay:10.37,2014-01-01 21:30:00,
2014-01-01 21:35:00,41.0,39.1,28.94,WSW,245,5.0,7.0,93,0.00,CLR,,0.19,0.0,WeatherDisplay:10.37,2014-01-01 21:35:00,
2014-01-01 21:40:00,40.8,38.7,28.94,WSW,245,2.0,6.0,92,0.00,CLR,,0.19,0.0,WeatherDisplay:10.37,2014-01-01 21:40:00,
2014-01-01 21:45:00,40.7,38.6,28.94,WSW,245,3.0,6.0,92,0.00,CLR,,0.19,0.0,WeatherDisplay:10.37,2014-01-01 21:45:00,
2014-01-01 21:50:00,40.7,38.6,28.94,WSW,245,2.0,5.0,92,0.00,CLR,,0.19,0.0,WeatherDisplay:10.37,2014-01-01 21:50:00,
2014-01-01 21:55:00,40.5,38.4,28.94,WSW,245,2.0,5.0,92,0.00,CLR,,0.19,0.0,WeatherDisplay:10.37,2014-01-01 21:55:00,
2014-01-01 22:00:00,40.5,38.4,28.95,WSW,245,2.0,5.0,92,0.00,CLR,,0.19,0.0,WeatherDisplay:10.37,2014-01-01 22:00:00,
2014-01-01 22:05:00,40.4,38.3,28.95,WSW,245,3.0,6.0,92,0.00,CLR,,0.19,0.0,WeatherDisplay:10.37,2014-01-01 22:05:00,
2014-01-01 22:10:00,40.4,38.3,28.95,WSW,245,2.0,6.0,92,0.00,CLR,,0.19,0.0,WeatherDisplay:10.37,2014-01-01 22:10:00,
2014-01-01 22:15:00,40.5,38.4,28.95,WSW,245,3.0,6.0,92,0.00,CLR,,0.19,0.0,WeatherDisplay:10.37,2014-01-01 22:15:00,
2014-01-01 22:20:00,40.5,38.1,28.95,WSW,245,5.0,7.0,91,0.00,CLR,,0.19,0.0,WeatherDisplay:10.37,2014-01-01 22:20:00,
2014-01-01 22:25:00,40.6,38.5,28.95,WSW,245,6.0,12.0,92,0.00,CLR,,0.19,0.0,WeatherDisplay:10.37,2014-01-01 22:25:00,
2014-01-01 22:30:00,40.9,38.4,28.95,WSW,245,5.0,9.0,91,0.00,CLR,,0.19,0.0,WeatherDisplay:10.37,2014-01-01 22:30:00,
2014-01-01 22:40:00,40.8,38.4,28.96,WSW,245,5.0,9.0,91,0.00,CLR,,0.19,0.0,WeatherDisplay:10.37,2014-01-01 22:40:00,
2014-01-01 22:45:00,40.8,38.3,28.96,WSW,245,6.0,12.0,91,0.00,CLR,,0.19,0.0,WeatherDisplay:10.37,2014-01-01 22:45:00,
2014-01-01 22:50:00,40.8,38.4,28.97,WSW,245,3.0,12.0,91,0.00,CLR,,0.19,0.0,WeatherDisplay:10.37,2014-01-01 22:50:00,
2014-01-01 22:55:00,40.8,38.1,28.97,WSW,245,5.0,8.0,90,0.00,CLR,,0.19,0.0,WeatherDisplay:10.37,2014-01-01 22:55:00,
2014-01-01 23:00:00,40.6,37.9,28.97,WSW,245,5.0,7.0,90,0.00,CLR,,0.19,0.0,WeatherDisplay:10.37,2014-01-01 23:00:00,
2014-01-01 23:05:00,40.6,37.9,28.97,WSW,245,5.0,7.0,90,0.00,CLR,,0.19,0.0,WeatherDisplay:10.37,2014-01-01 23:05:00,
2014-01-01 23:10:00,40.5,37.8,28.97,WSW,245,3.0,6.0,90,0.00,CLR,,0.19,0.0,WeatherDisplay:10.37,2014-01-01 23:10:00,
2014-01-01 23:15:00,40.4,37.7,28.98,WSW,245,3.0,5.0,90,0.00,CLR,,0.19,0.0,WeatherDisplay:10.37,2014-01-01 23:15:00,
2014-01-01 23:20:00,40.4,37.7,28.98,WSW,245,3.0,5.0,90,0.00,CLR,,0.19,0.0,WeatherDisplay:10.37,2014-01-01 23:20:00,
2014-01-01 23:25:00,40.3,37.6,28.98,WSW,245,3.0,6.0,90,0.00,CLR,,0.19,0.0,WeatherDisplay:10.37,2014-01-01 23:25:00,
2014-01-01 23:30:00,40.3,37.6,28.98,WSW,245,3.0,5.0,90,0.00,CLR,,0.19,0.0,WeatherDisplay:10.37,2014-01-01 23:30:00,
2014-01-01 23:35:00,40.2,37.8,28.99,WSW,245,3.0,6.0,91,0.00,CLR,,0.19,0.0,WeatherDisplay:10.37,2014-01-01 23:35:00,
2014-01-01 23:40:00,40.1,37.4,28.99,WSW,245,3.0,6.0,90,0.00,CLR,,0.19,0.0,WeatherDisplay:10.37,2014-01-01 23:40:00,
2014-01-01 23:45:00,40.0,37.6,28.99,WSW,245,5.0,7.0,91,0.00,CLR,,0.19,0.0,WeatherDisplay:10.37,2014-01-01 23:45:00,
2014-01-01 23:50:00,40.1,37.7,28.99,WSW,245,3.0,6.0,91,0.00,CLR,,0.19,0.0,WeatherDisplay:10.37,2014-01-01 23:50:00,
2014-01-01 23:55:00,40.3,37.9,29.00,WSW,245,5.0,8.0,91,0.00,CLR,,0.19,0.0,WeatherDisplay:10.37,2014-01-01 23:55:00,